MTN8211 TUPJ-TJSJ
Flight info
| Callsign | MTN8211 |
|---|---|
| Flight time | 0h 33m |
| Altitude | 10000 |
| Route | STT RTE2 SJU |
| Aircraft | C408/M-SDFGRY/S |
Departure
| Time | 2026-05-06 23:31 |
|---|---|
| Airport | Terrance B. Lettsome International Airport (TUPJ) |
Arrival
| Time | 2026-05-07 00:04 |
|---|---|
| Airport | Luis Munoz Marin International Airport (TJSJ) |
| Time | Latitude | Longitude | Altitude | Speed | Heading |
|---|---|---|---|---|---|
| 2026-05-06 23:12 | 18.44529 | -64.53851 | 16 ft | 0 kts | 88° |
| 2026-05-06 23:25 | 18.44530 | -64.53847 | 16 ft | 2 kts | 76° |
| 2026-05-06 23:26 | 18.44567 | -64.53838 | 15 ft | 12 kts | 334° |
| 2026-05-06 23:26 | 18.44603 | -64.53877 | 14 ft | 4 kts | 272° |
| 2026-05-06 23:26 | 18.44578 | -64.53930 | 15 ft | 12 kts | 237° |
| 2026-05-06 23:26 | 18.44526 | -64.54027 | 15 ft | 14 kts | 243° |
| 2026-05-06 23:27 | 18.44510 | -64.54088 | 15 ft | 6 kts | 298° |
| 2026-05-06 23:27 | 18.44547 | -64.54157 | 14 ft | 14 kts | 276° |
| 2026-05-06 23:27 | 18.44502 | -64.54261 | 16 ft | 18 kts | 238° |
| 2026-05-06 23:27 | 18.44431 | -64.54395 | 19 ft | 24 kts | 240° |
| 2026-05-06 23:28 | 18.44365 | -64.54507 | 18 ft | 3 kts | 202° |
| 2026-05-06 23:28 | 18.44315 | -64.54510 | 19 ft | 11 kts | 187° |
| 2026-05-06 23:28 | 18.44245 | -64.54549 | 20 ft | 13 kts | 242° |
| 2026-05-06 23:28 | 18.44223 | -64.54672 | 17 ft | 21 kts | 276° |
| 2026-05-06 23:29 | 18.44229 | -64.54714 | 17 ft | 0 kts | 285° |
| 2026-05-06 23:29 | 18.44229 | -64.54715 | 17 ft | 1 kts | 285° |
| 2026-05-06 23:29 | 18.44257 | -64.54718 | 18 ft | 9 kts | 48° |
| 2026-05-06 23:30 | 18.44307 | -64.54626 | 20 ft | 28 kts | 61° |
| 2026-05-06 23:30 | 18.44532 | -64.54205 | 15 ft | 99 kts | 62° |
| 2026-05-06 23:30 | 18.44941 | -64.53457 | 94 ft | 130 kts | 60° |
| 2026-05-06 23:30 | 18.45453 | -64.52672 | 428 ft | 129 kts | 53° |
| 2026-05-06 23:31 | 18.45991 | -64.51866 | 644 ft | 140 kts | 59° |
| 2026-05-06 23:31 | 18.46535 | -64.51019 | 914 ft | 141 kts | 58° |
| 2026-05-06 23:31 | 18.47092 | -64.50152 | 1219 ft | 145 kts | 58° |
| 2026-05-06 23:31 | 18.47660 | -64.49276 | 1543 ft | 144 kts | 58° |
| 2026-05-06 23:32 | 18.48224 | -64.48400 | 1857 ft | 144 kts | 58° |
| 2026-05-06 23:32 | 18.48777 | -64.47533 | 2225 ft | 141 kts | 58° |
| 2026-05-06 23:32 | 18.49332 | -64.46679 | 2579 ft | 140 kts | 58° |
| 2026-05-06 23:32 | 18.49887 | -64.45837 | 2932 ft | 139 kts | 58° |
| 2026-05-06 23:33 | 18.50444 | -64.45003 | 3288 ft | 140 kts | 55° |
| 2026-05-06 23:33 | 18.51310 | -64.44568 | 3621 ft | 148 kts | 359° |
| 2026-05-06 23:33 | 18.52269 | -64.44948 | 3972 ft | 151 kts | 324° |
| 2026-05-06 23:33 | 18.52837 | -64.45870 | 4281 ft | 153 kts | 283° |
| 2026-05-06 23:34 | 18.52801 | -64.46976 | 4611 ft | 152 kts | 255° |
| 2026-05-06 23:34 | 18.52616 | -64.48079 | 4938 ft | 156 kts | 258° |
| 2026-05-06 23:34 | 18.52450 | -64.49229 | 5276 ft | 161 kts | 259° |
| 2026-05-06 23:34 | 18.52291 | -64.50417 | 5615 ft | 166 kts | 260° |
| 2026-05-06 23:35 | 18.52132 | -64.51638 | 5952 ft | 170 kts | 260° |
| 2026-05-06 23:35 | 18.51971 | -64.52874 | 6303 ft | 171 kts | 260° |
| 2026-05-06 23:35 | 18.51809 | -64.54119 | 6651 ft | 172 kts | 260° |
| 2026-05-06 23:35 | 18.51646 | -64.55368 | 6976 ft | 173 kts | 260° |
| 2026-05-06 23:36 | 18.51482 | -64.56621 | 7308 ft | 173 kts | 261° |
| 2026-05-06 23:36 | 18.51318 | -64.57881 | 7640 ft | 174 kts | 261° |
| 2026-05-06 23:36 | 18.51153 | -64.59141 | 7974 ft | 174 kts | 261° |
| 2026-05-06 23:36 | 18.50989 | -64.60402 | 8316 ft | 173 kts | 261° |
| 2026-05-06 23:37 | 18.50824 | -64.61656 | 8679 ft | 172 kts | 262° |
| 2026-05-06 23:37 | 18.50661 | -64.62904 | 9041 ft | 172 kts | 262° |
| 2026-05-06 23:37 | 18.50497 | -64.64148 | 9409 ft | 171 kts | 262° |
| 2026-05-06 23:37 | 18.50335 | -64.65389 | 9782 ft | 171 kts | 262° |
| 2026-05-06 23:38 | 18.50170 | -64.66646 | 9992 ft | 181 kts | 263° |
| 2026-05-06 23:38 | 18.49993 | -64.68011 | 10010 ft | 195 kts | 262° |
| 2026-05-06 23:38 | 18.49803 | -64.69459 | 10012 ft | 204 kts | 262° |
| 2026-05-06 23:38 | 18.49606 | -64.70952 | 10001 ft | 208 kts | 262° |
| 2026-05-06 23:39 | 18.49407 | -64.72465 | 10000 ft | 209 kts | 262° |
| 2026-05-06 23:39 | 18.49206 | -64.73986 | 10011 ft | 210 kts | 262° |
| 2026-05-06 23:39 | 18.49006 | -64.75511 | 10009 ft | 210 kts | 262° |
| 2026-05-06 23:39 | 18.48805 | -64.77036 | 10010 ft | 210 kts | 262° |
| 2026-05-06 23:40 | 18.48604 | -64.78558 | 10005 ft | 210 kts | 262° |
| 2026-05-06 23:40 | 18.48404 | -64.80078 | 10004 ft | 210 kts | 262° |
| 2026-05-06 23:40 | 18.48204 | -64.81596 | 10004 ft | 209 kts | 262° |
| 2026-05-06 23:40 | 18.48004 | -64.83111 | 10003 ft | 209 kts | 262° |
| 2026-05-06 23:41 | 18.47804 | -64.84625 | 10003 ft | 209 kts | 262° |
| 2026-05-06 23:41 | 18.47604 | -64.86138 | 10004 ft | 209 kts | 262° |
| 2026-05-06 23:41 | 18.47404 | -64.87650 | 10001 ft | 208 kts | 262° |
| 2026-05-06 23:41 | 18.47204 | -64.89163 | 10001 ft | 208 kts | 262° |
| 2026-05-06 23:42 | 18.47004 | -64.90674 | 10004 ft | 208 kts | 262° |
| 2026-05-06 23:42 | 18.46803 | -64.92187 | 10004 ft | 208 kts | 262° |
| 2026-05-06 23:42 | 18.46603 | -64.93698 | 10007 ft | 208 kts | 262° |
| 2026-05-06 23:42 | 18.46402 | -64.95210 | 10007 ft | 209 kts | 262° |
| 2026-05-06 23:43 | 18.46204 | -64.96701 | 10006 ft | 209 kts | 262° |
| 2026-05-06 23:43 | 18.46003 | -64.98216 | 10007 ft | 209 kts | 262° |
| 2026-05-06 23:43 | 18.45802 | -64.99728 | 10008 ft | 209 kts | 262° |
| 2026-05-06 23:43 | 18.45601 | -65.01241 | 10006 ft | 209 kts | 262° |
| 2026-05-06 23:44 | 18.45399 | -65.02755 | 10007 ft | 209 kts | 262° |
| 2026-05-06 23:44 | 18.45198 | -65.04268 | 10007 ft | 209 kts | 262° |
| 2026-05-06 23:44 | 18.44996 | -65.05780 | 10004 ft | 209 kts | 262° |
| 2026-05-06 23:44 | 18.44795 | -65.07294 | 10006 ft | 209 kts | 262° |
| 2026-05-06 23:45 | 18.44593 | -65.08806 | 10006 ft | 209 kts | 262° |
| 2026-05-06 23:45 | 18.44391 | -65.10319 | 10005 ft | 209 kts | 262° |
| 2026-05-06 23:45 | 18.44189 | -65.11833 | 10004 ft | 209 kts | 262° |
| 2026-05-06 23:45 | 18.43987 | -65.13346 | 10006 ft | 209 kts | 262° |
| 2026-05-06 23:46 | 18.43784 | -65.14858 | 10001 ft | 209 kts | 262° |
| 2026-05-06 23:46 | 18.43582 | -65.16371 | 10002 ft | 209 kts | 262° |
| 2026-05-06 23:46 | 18.43379 | -65.17882 | 10003 ft | 209 kts | 262° |
| 2026-05-06 23:46 | 18.43177 | -65.19395 | 10001 ft | 208 kts | 262° |
| 2026-05-06 23:47 | 18.42974 | -65.20906 | 10000 ft | 209 kts | 262° |
| 2026-05-06 23:47 | 18.42771 | -65.22420 | 10001 ft | 209 kts | 262° |
| 2026-05-06 23:47 | 18.42569 | -65.23930 | 9999 ft | 208 kts | 262° |
| 2026-05-06 23:47 | 18.42365 | -65.25442 | 9988 ft | 208 kts | 262° |
| 2026-05-06 23:48 | 18.42162 | -65.26954 | 10001 ft | 208 kts | 262° |
| 2026-05-06 23:48 | 18.41959 | -65.28464 | 9997 ft | 208 kts | 262° |
| 2026-05-06 23:48 | 18.41756 | -65.29974 | 10001 ft | 208 kts | 262° |
| 2026-05-06 23:48 | 18.41552 | -65.31486 | 10002 ft | 208 kts | 262° |
| 2026-05-06 23:49 | 18.41348 | -65.32997 | 10001 ft | 209 kts | 262° |
| 2026-05-06 23:49 | 18.41145 | -65.34512 | 10000 ft | 209 kts | 262° |
| 2026-05-06 23:49 | 18.40941 | -65.36024 | 9996 ft | 209 kts | 262° |
| 2026-05-06 23:49 | 18.40736 | -65.37537 | 10001 ft | 209 kts | 262° |
| 2026-05-06 23:50 | 18.40532 | -65.39052 | 10003 ft | 209 kts | 262° |
| 2026-05-06 23:50 | 18.40124 | -65.42073 | 9780 ft | 208 kts | 262° |
| 2026-05-06 23:50 | 18.39920 | -65.43582 | 9526 ft | 208 kts | 262° |
| 2026-05-06 23:51 | 18.39715 | -65.45089 | 9256 ft | 208 kts | 262° |
| 2026-05-06 23:51 | 18.39511 | -65.46596 | 8986 ft | 208 kts | 262° |
| 2026-05-06 23:51 | 18.39308 | -65.48097 | 8711 ft | 207 kts | 261° |
| 2026-05-06 23:51 | 18.39105 | -65.49592 | 8437 ft | 206 kts | 261° |
| 2026-05-06 23:52 | 18.38903 | -65.51080 | 8166 ft | 205 kts | 261° |
| 2026-05-06 23:52 | 18.38701 | -65.52565 | 7897 ft | 205 kts | 261° |
| 2026-05-06 23:52 | 18.38500 | -65.54047 | 7625 ft | 204 kts | 261° |
| 2026-05-06 23:52 | 18.38301 | -65.55506 | 7359 ft | 204 kts | 261° |
| 2026-05-06 23:53 | 18.38101 | -65.56979 | 7092 ft | 202 kts | 261° |
| 2026-05-06 23:53 | 18.37904 | -65.58431 | 6824 ft | 200 kts | 261° |
| 2026-05-06 23:53 | 18.37706 | -65.59874 | 6557 ft | 198 kts | 261° |
| 2026-05-06 23:53 | 18.37512 | -65.61305 | 6279 ft | 197 kts | 261° |
| 2026-05-06 23:54 | 18.37335 | -65.62731 | 6021 ft | 196 kts | 266° |
| 2026-05-06 23:54 | 18.37538 | -65.64137 | 5994 ft | 198 kts | 282° |
| 2026-05-06 23:54 | 18.37825 | -65.65563 | 6005 ft | 200 kts | 281° |
| 2026-05-06 23:54 | 18.38112 | -65.66985 | 6006 ft | 197 kts | 281° |
| 2026-05-06 23:55 | 18.38401 | -65.68402 | 5777 ft | 199 kts | 281° |
| 2026-05-06 23:55 | 18.38693 | -65.69827 | 5528 ft | 198 kts | 281° |
| 2026-05-06 23:55 | 18.38980 | -65.71237 | 5286 ft | 197 kts | 281° |
| 2026-05-06 23:55 | 18.39266 | -65.72644 | 5044 ft | 196 kts | 281° |
| 2026-05-06 23:56 | 18.39552 | -65.74042 | 4803 ft | 195 kts | 281° |
| 2026-05-06 23:56 | 18.39837 | -65.75440 | 4551 ft | 195 kts | 281° |
| 2026-05-06 23:56 | 18.39976 | -65.76845 | 4300 ft | 193 kts | 262° |
| 2026-05-06 23:56 | 18.39721 | -65.78228 | 4059 ft | 193 kts | 256° |
| 2026-05-06 23:57 | 18.39470 | -65.79605 | 3997 ft | 192 kts | 257° |
| 2026-05-06 23:57 | 18.39212 | -65.80989 | 3998 ft | 193 kts | 257° |
| 2026-05-06 23:57 | 18.38954 | -65.82380 | 4001 ft | 194 kts | 257° |
| 2026-05-06 23:57 | 18.38695 | -65.83769 | 4001 ft | 193 kts | 257° |
| 2026-05-06 23:58 | 18.38438 | -65.85150 | 4002 ft | 192 kts | 256° |
| 2026-05-06 23:58 | 18.38180 | -65.86532 | 4002 ft | 193 kts | 257° |
| 2026-05-06 23:58 | 18.37921 | -65.87919 | 4009 ft | 193 kts | 257° |
| 2026-05-06 23:58 | 18.37662 | -65.89306 | 4006 ft | 193 kts | 257° |
| 2026-05-06 23:59 | 18.37404 | -65.90693 | 4001 ft | 193 kts | 257° |
| 2026-05-06 23:59 | 18.37139 | -65.92109 | 3780 ft | 199 kts | 257° |
| 2026-05-06 23:59 | 18.36877 | -65.93523 | 3540 ft | 194 kts | 257° |
| 2026-05-06 23:59 | 18.36615 | -65.94912 | 3301 ft | 193 kts | 257° |
| 2026-05-07 00:00 | 18.36358 | -65.96289 | 3052 ft | 191 kts | 257° |
| 2026-05-07 00:00 | 18.36126 | -65.97660 | 2797 ft | 190 kts | 265° |
| 2026-05-07 00:00 | 18.36172 | -65.99060 | 2554 ft | 192 kts | 271° |
| 2026-05-07 00:00 | 18.36212 | -65.99980 | 2500 ft | 187 kts | 271° |
| 2026-05-07 00:01 | 18.36326 | -66.01742 | 2467 ft | 176 kts | 284° |
| 2026-05-07 00:01 | 18.36935 | -66.02848 | 2292 ft | 176 kts | 314° |
| 2026-05-07 00:01 | 18.37898 | -66.03576 | 1966 ft | 170 kts | 335° |
| 2026-05-07 00:01 | 18.38957 | -66.04041 | 1808 ft | 159 kts | 343° |
| 2026-05-07 00:02 | 18.40035 | -66.04168 | 1591 ft | 155 kts | 7° |
| 2026-05-07 00:02 | 18.41076 | -66.03949 | 1351 ft | 151 kts | 18° |
| 2026-05-07 00:02 | 18.42028 | -66.03676 | 931 ft | 133 kts | 21° |
| 2026-05-07 00:02 | 18.42750 | -66.03271 | 713 ft | 107 kts | 51° |
| 2026-05-07 00:03 | 18.43120 | -66.02617 | 446 ft | 101 kts | 73° |
| 2026-05-07 00:03 | 18.43315 | -66.01912 | 214 ft | 99 kts | 83° |
| 2026-05-07 00:03 | 18.43353 | -66.01206 | 30 ft | 92 kts | 92° |
| 2026-05-07 00:03 | 18.43350 | -66.00598 | 13 ft | 70 kts | 91° |
| 2026-05-07 00:04 | 18.43351 | -66.00237 | 14 ft | 47 kts | 91° |
| 2026-05-07 00:04 | 18.43359 | -66.00008 | 16 ft | 19 kts | 78° |
| 2026-05-07 00:04 | 18.43406 | -65.99913 | 16 ft | 16 kts | 56° |
| 2026-05-07 00:04 | 18.43447 | -65.99850 | 15 ft | 7 kts | 56° |
| 2026-05-07 00:05 | 18.43455 | -65.99837 | 15 ft | 0 kts | 60° |
| 2026-05-07 00:05 | 18.43456 | -65.99835 | 15 ft | 0 kts | 61° |
| 2026-05-07 00:05 | 18.43460 | -65.99827 | 15 ft | 5 kts | 66° |
| 2026-05-07 00:05 | 18.43466 | -65.99759 | 15 ft | 13 kts | 94° |
| 2026-05-07 00:06 | 18.43463 | -65.99644 | 16 ft | 17 kts | 91° |
| 2026-05-07 00:06 | 18.43468 | -65.99576 | 16 ft | 6 kts | 69° |
| 2026-05-07 00:06 | 18.43510 | -65.99542 | 15 ft | 10 kts | 5° |
| 2026-05-07 00:06 | 18.43614 | -65.99525 | 15 ft | 19 kts | 17° |
| 2026-05-07 00:07 | 18.43701 | -65.99510 | 15 ft | 19 kts | 1° |
| 2026-05-07 00:07 | 18.43752 | -65.99478 | 15 ft | 5 kts | 105° |
| 2026-05-07 00:07 | 18.43719 | -65.99442 | 15 ft | 0 kts | 167° |